createdAt,value
2024-01-20T00:02:16.947Z,-1.50
2024-01-20T00:04:43.873Z,-1.50
2024-01-20T00:07:10.767Z,-1.50
2024-01-20T00:09:46.044Z,-1.50
2024-01-20T00:12:17.397Z,-1.40
2024-01-20T00:14:44.225Z,-1.40
2024-01-20T00:17:20.784Z,-1.40
2024-01-20T00:19:54.118Z,-1.40
2024-01-20T00:22:22.544Z,-1.40
2024-01-20T00:24:50.417Z,-1.40
2024-01-20T00:27:17.360Z,-1.30
2024-01-20T00:29:45.183Z,-1.30
2024-01-20T00:32:12.809Z,-1.40
2024-01-20T00:34:51.401Z,-1.40
2024-01-20T00:37:26.442Z,-1.40
2024-01-20T00:39:53.164Z,-1.40
2024-01-20T00:42:19.879Z,-1.40
2024-01-20T00:44:46.636Z,-1.40
2024-01-20T00:47:13.549Z,-1.40
2024-01-20T00:49:40.661Z,-1.40
2024-01-20T00:52:07.572Z,-1.40
2024-01-20T00:54:34.495Z,-1.40
2024-01-20T00:57:01.464Z,-1.40
2024-01-20T00:59:28.287Z,-1.40
2024-01-20T01:01:55.131Z,-1.40
2024-01-20T01:04:21.902Z,-1.40
2024-01-20T01:06:49.904Z,-1.40
2024-01-20T01:09:16.809Z,-1.50
2024-01-20T01:11:43.663Z,-1.50
2024-01-20T01:14:10.572Z,-1.50
2024-01-20T01:16:37.441Z,-1.50
2024-01-20T01:19:04.287Z,-1.50
2024-01-20T01:21:31.079Z,-1.50
2024-01-20T01:23:57.934Z,-1.50
2024-01-20T01:26:26.401Z,-1.60
2024-01-20T01:28:54.454Z,-1.60
2024-01-20T01:31:21.275Z,-1.60
2024-01-20T01:33:48.542Z,-1.60
2024-01-20T01:36:15.891Z,-1.60
2024-01-20T01:38:42.723Z,-1.60
2024-01-20T01:41:09.662Z,-1.70
2024-01-20T01:43:36.541Z,-1.30
2024-01-20T01:46:04.204Z,-1.70
2024-01-20T01:48:31.980Z,-1.80
2024-01-20T01:50:58.998Z,-1.80
2024-01-20T01:53:26.074Z,-1.80
2024-01-20T01:55:54.027Z,-1.80
2024-01-20T01:58:20.843Z,-1.80
2024-01-20T02:00:49.135Z,-1.90
2024-01-20T02:03:17.262Z,-1.90
2024-01-20T02:05:44.357Z,-1.90
2024-01-20T02:08:11.659Z,-1.90
2024-01-20T02:10:40.653Z,-1.90
2024-01-20T02:13:07.664Z,-1.90
2024-01-20T02:15:36.387Z,-1.90
2024-01-20T02:18:03.636Z,-1.90
2024-01-20T02:20:30.429Z,-2.00
2024-01-20T02:22:57.222Z,-2.00
2024-01-20T02:25:24.072Z,-2.00
2024-01-20T02:27:51.215Z,-2.00
2024-01-20T02:30:17.964Z,-2.00
2024-01-20T02:32:44.920Z,-2.00
2024-01-20T02:35:11.820Z,-2.00
2024-01-20T02:37:38.559Z,-2.00
2024-01-20T02:40:06.056Z,-2.00
2024-01-20T02:42:32.797Z,-2.00
2024-01-20T02:44:59.559Z,-2.10
2024-01-20T02:47:26.293Z,-2.10
2024-01-20T02:49:53.042Z,-2.20
2024-01-20T02:52:19.822Z,-2.10
2024-01-20T02:54:46.538Z,-2.10
2024-01-20T02:57:13.296Z,-2.20
2024-01-20T02:59:40.049Z,-2.10
2024-01-20T03:02:06.822Z,-2.20
2024-01-20T03:04:33.605Z,-2.20
2024-01-20T03:07:00.406Z,-2.20
2024-01-20T03:09:27.263Z,-2.20
2024-01-20T03:11:54.146Z,-2.20
2024-01-20T03:14:20.906Z,-2.20
2024-01-20T03:16:47.768Z,-2.20
2024-01-20T03:19:14.586Z,-2.30
2024-01-20T03:21:41.363Z,-2.30
2024-01-20T03:24:08.256Z,-2.30
2024-01-20T03:26:35.031Z,-2.30
2024-01-20T03:29:01.751Z,-2.30
2024-01-20T03:31:28.508Z,-2.30
2024-01-20T03:33:55.356Z,-2.30
2024-01-20T03:36:22.466Z,-2.30
2024-01-20T03:38:49.301Z,-2.40
2024-01-20T03:41:17.946Z,-2.40
2024-01-20T03:43:44.670Z,-2.30
2024-01-20T03:46:11.404Z,-2.30
2024-01-20T03:48:38.344Z,-2.30
2024-01-20T03:51:05.261Z,-2.40
2024-01-20T03:53:32.047Z,-2.40
2024-01-20T03:55:58.762Z,-2.30
2024-01-20T03:58:25.451Z,-2.40
2024-01-20T04:00:52.188Z,-2.30
2024-01-20T04:03:19.429Z,-2.30
2024-01-20T04:05:48.399Z,-2.30
2024-01-20T04:08:15.391Z,-2.30
2024-01-20T04:10:42.144Z,-2.30
2024-01-20T04:13:09.044Z,-2.30
2024-01-20T04:15:35.829Z,-2.20
2024-01-20T04:18:02.849Z,-2.30
2024-01-20T04:20:29.954Z,-2.30
2024-01-20T04:22:56.652Z,-2.40
2024-01-20T04:25:23.386Z,-2.40
2024-01-20T04:27:50.085Z,-2.40
2024-01-20T04:30:16.871Z,-2.40
2024-01-20T04:32:44.338Z,-2.40
2024-01-20T04:35:11.093Z,-2.40
2024-01-20T04:37:39.849Z,-2.50
2024-01-20T04:40:07.265Z,-2.50
2024-01-20T04:42:34.194Z,-2.40
2024-01-20T04:45:04.506Z,-2.40
2024-01-20T04:47:32.438Z,-2.40
2024-01-20T04:49:59.192Z,-2.40
2024-01-20T04:52:26.213Z,-2.50
2024-01-20T04:54:53.725Z,-2.50
2024-01-20T04:57:22.038Z,-2.60
2024-01-20T04:59:49.136Z,-2.60
2024-01-20T05:02:16.721Z,-2.60
2024-01-20T05:04:43.584Z,-2.60
2024-01-20T05:07:10.795Z,-2.70
2024-01-20T05:09:37.662Z,-2.60
2024-01-20T05:12:04.584Z,-2.60
2024-01-20T05:14:31.507Z,-2.50
2024-01-20T05:16:58.302Z,-2.60
2024-01-20T05:19:25.420Z,-2.50
2024-01-20T05:21:52.292Z,-2.50
2024-01-20T05:24:19.028Z,-2.50
2024-01-20T05:26:45.824Z,-2.50
2024-01-20T05:29:12.675Z,-2.50
2024-01-20T05:31:39.381Z,-2.50
2024-01-20T05:34:06.283Z,-2.40
2024-01-20T05:36:33.228Z,-2.50
2024-01-20T05:39:00.088Z,-2.40
2024-01-20T05:41:26.888Z,-2.50
2024-01-20T05:43:53.694Z,-2.50
2024-01-20T05:46:21.479Z,-2.50
2024-01-20T05:48:48.821Z,-2.50
2024-01-20T05:51:15.873Z,-2.50
2024-01-20T05:53:42.719Z,-2.50
2024-01-20T05:56:09.468Z,-2.50
2024-01-20T05:58:36.164Z,-2.50
2024-01-20T06:01:03.063Z,-2.50
2024-01-20T06:03:29.903Z,-2.40
2024-01-20T06:05:57.373Z,-2.50
2024-01-20T06:08:24.165Z,-2.40
2024-01-20T06:10:51.535Z,-2.40
2024-01-20T06:13:18.245Z,-2.40
2024-01-20T06:15:45.006Z,-2.40
2024-01-20T06:18:11.807Z,-2.50
2024-01-20T06:20:39.080Z,-2.50
2024-01-20T06:23:05.910Z,-2.50
2024-01-20T06:25:32.693Z,-2.60
2024-01-20T06:27:59.522Z,-2.60
2024-01-20T06:30:26.265Z,-2.60
2024-01-20T06:32:53.218Z,-2.60
2024-01-20T06:35:21.076Z,-2.60
2024-01-20T06:37:47.841Z,-2.50
2024-01-20T06:40:14.828Z,-2.50
2024-01-20T06:42:41.585Z,-2.60
2024-01-20T06:45:08.661Z,-2.50
2024-01-20T06:47:35.549Z,-2.60
2024-01-20T06:50:02.394Z,-2.60
2024-01-20T06:52:31.997Z,-2.60
2024-01-20T06:54:58.746Z,-2.60
2024-01-20T06:57:25.540Z,-2.60
2024-01-20T06:59:52.260Z,-2.60
2024-01-20T07:02:18.962Z,-2.60
2024-01-20T07:04:45.660Z,-2.70
2024-01-20T07:07:13.067Z,-2.60
2024-01-20T07:09:41.121Z,-2.60
2024-01-20T07:12:09.027Z,-2.60
2024-01-20T07:14:36.686Z,-2.60
2024-01-20T07:17:05.571Z,-2.70
2024-01-20T07:19:32.400Z,-2.70
2024-01-20T07:21:59.148Z,-2.70
2024-01-20T07:24:26.060Z,-2.70
2024-01-20T07:26:52.816Z,-2.70
2024-01-20T07:29:19.847Z,-2.70
2024-01-20T07:31:46.675Z,-2.70
2024-01-20T07:34:13.513Z,-2.70
2024-01-20T07:36:40.348Z,-2.70
2024-01-20T07:39:07.935Z,-2.60
2024-01-20T07:41:34.758Z,-2.60
2024-01-20T07:44:01.479Z,-2.60
2024-01-20T07:46:28.299Z,-2.50
2024-01-20T07:48:55.065Z,-2.50
2024-01-20T07:51:22.201Z,-2.50
2024-01-20T07:53:48.970Z,-2.50
2024-01-20T07:56:17.339Z,-2.40
2024-01-20T07:58:44.078Z,-2.40
2024-01-20T08:01:10.892Z,-2.30
2024-01-20T08:03:37.705Z,-2.40
2024-01-20T08:06:04.798Z,-2.40
2024-01-20T08:08:31.558Z,-2.30
2024-01-20T08:10:58.262Z,-2.40
2024-01-20T08:13:25.011Z,-2.40
2024-01-20T08:15:51.772Z,-2.40
2024-01-20T08:18:18.736Z,-2.30
2024-01-20T08:20:45.597Z,-2.30
2024-01-20T08:23:12.348Z,-2.30
2024-01-20T08:25:39.111Z,-2.30
2024-01-20T08:28:06.098Z,-2.30
2024-01-20T08:30:33.509Z,-2.20
2024-01-20T08:33:03.556Z,-2.20
2024-01-20T08:35:32.076Z,-2.10
2024-01-20T08:37:58.909Z,-2.10
2024-01-20T08:40:25.850Z,-2.00
2024-01-20T08:42:52.713Z,-1.90
2024-01-20T08:45:19.550Z,-1.80
2024-01-20T08:47:46.374Z,-1.70
2024-01-20T08:50:13.141Z,-1.60
2024-01-20T08:52:40.862Z,-1.50
2024-01-20T08:55:08.283Z,-1.40
2024-01-20T08:57:35.717Z,-1.30
2024-01-20T09:00:02.753Z,-1.30
2024-01-20T09:02:29.617Z,-1.60
2024-01-20T09:04:56.457Z,-1.60
2024-01-20T09:07:23.214Z,-1.50
2024-01-20T09:09:49.984Z,-1.50
2024-01-20T09:12:16.892Z,-1.50
2024-01-20T09:14:44.139Z,-1.50
2024-01-20T09:17:10.931Z,-1.30
2024-01-20T09:19:37.892Z,-1.20
2024-01-20T09:22:04.962Z,-1.00
2024-01-20T09:24:31.799Z,-0.90
2024-01-20T09:26:58.681Z,-0.70
2024-01-20T09:29:25.516Z,-0.90
2024-01-20T09:31:52.250Z,-0.80
2024-01-20T09:34:19.335Z,-0.90
2024-01-20T09:36:46.568Z,-0.90
2024-01-20T09:39:13.688Z,-0.90
2024-01-20T09:41:42.108Z,-1.00
2024-01-20T09:44:09.998Z,-1.00
2024-01-20T09:46:36.937Z,-1.00
2024-01-20T09:49:03.973Z,-1.20
2024-01-20T09:51:32.836Z,-1.10
2024-01-20T09:54:00.656Z,-1.00
2024-01-20T09:56:28.756Z,-0.80
2024-01-20T09:59:04.085Z,-0.90
2024-01-20T10:01:32.235Z,-0.80
2024-01-20T10:04:04.337Z,-0.50
2024-01-20T10:06:31.798Z,-0.20
2024-01-20T10:08:59.016Z,0.20
2024-01-20T10:11:26.986Z,0.40
2024-01-20T10:13:53.763Z,0.80
2024-01-20T10:16:22.095Z,1.40
2024-01-20T10:18:50.077Z,1.90
2024-01-20T10:21:17.022Z,1.80
2024-01-20T10:23:43.967Z,1.60
2024-01-20T10:26:10.716Z,1.90
2024-01-20T10:28:37.593Z,1.10
2024-01-20T10:31:10.781Z,0.80
2024-01-20T10:33:38.384Z,0.70
2024-01-20T10:36:06.381Z,0.80
2024-01-20T10:38:40.080Z,1.00
2024-01-20T10:41:08.897Z,1.20
2024-01-20T10:43:41.224Z,1.40
2024-01-20T10:46:25.419Z,1.60
2024-01-20T10:48:55.345Z,1.40
2024-01-20T10:51:28.358Z,1.50
2024-01-20T10:53:59.117Z,1.70
2024-01-20T10:56:28.042Z,1.60
2024-01-20T10:59:18.621Z,1.20
2024-01-20T11:01:46.552Z,1.30
2024-01-20T11:04:20.066Z,1.10
2024-01-20T11:06:47.661Z,1.40
2024-01-20T11:09:24.305Z,1.90
2024-01-20T11:12:10.812Z,2.40
2024-01-20T11:14:37.917Z,2.80
2024-01-20T11:17:14.893Z,3.50
2024-01-20T11:19:41.870Z,3.80
2024-01-20T11:22:30.198Z,3.60
2024-01-20T11:24:57.468Z,2.90
2024-01-20T11:27:24.780Z,2.30
2024-01-20T11:29:51.644Z,2.00
2024-01-20T11:32:22.368Z,2.00
2024-01-20T11:34:49.734Z,2.10
2024-01-20T11:37:16.923Z,2.40
2024-01-20T11:39:43.705Z,2.30
2024-01-20T11:42:11.720Z,2.50
2024-01-20T11:44:39.346Z,3.00
2024-01-20T11:47:06.590Z,2.90
2024-01-20T11:49:36.192Z,2.90
2024-01-20T11:52:03.447Z,3.00
2024-01-20T11:54:30.237Z,3.30
2024-01-20T11:56:58.571Z,3.70
2024-01-20T11:59:25.727Z,4.50
2024-01-20T12:01:52.873Z,4.90
2024-01-20T12:04:20.407Z,5.10
2024-01-20T12:06:48.039Z,5.10
2024-01-20T12:09:14.876Z,5.00
2024-01-20T12:11:42.389Z,4.80
2024-01-20T12:14:09.641Z,4.50
2024-01-20T12:16:36.906Z,4.30
2024-01-20T12:19:04.177Z,4.00
2024-01-20T12:21:31.230Z,3.90
2024-01-20T12:23:58.011Z,3.70
2024-01-20T12:26:25.430Z,3.60
2024-01-20T12:28:54.291Z,3.40
2024-01-20T12:31:23.038Z,2.80
2024-01-20T12:33:50.826Z,2.70
2024-01-20T12:36:18.021Z,2.50
2024-01-20T12:38:44.991Z,2.60
2024-01-20T12:41:11.912Z,2.80
2024-01-20T12:43:38.811Z,2.90
2024-01-20T12:46:05.632Z,2.90
2024-01-20T12:48:33.261Z,2.90
2024-01-20T12:51:01.270Z,2.80
2024-01-20T12:53:28.329Z,2.60
2024-01-20T12:55:55.079Z,2.70
2024-01-20T12:58:21.828Z,2.80
2024-01-20T13:00:48.848Z,2.20
2024-01-20T13:03:15.746Z,1.90
2024-01-20T13:05:44.622Z,2.10
2024-01-20T13:08:11.586Z,1.40
2024-01-20T13:10:38.303Z,1.70
2024-01-20T13:13:05.028Z,1.80
2024-01-20T13:15:31.947Z,1.70
2024-01-20T13:17:58.979Z,1.70
2024-01-20T13:20:25.797Z,1.60
2024-01-20T13:22:53.009Z,1.40
2024-01-20T13:25:19.786Z,1.30
2024-01-20T13:27:47.057Z,1.20
2024-01-20T13:30:14.184Z,1.00
2024-01-20T13:32:41.300Z,1.00
2024-01-20T13:35:08.626Z,0.90
2024-01-20T13:37:35.386Z,0.80
2024-01-20T13:40:05.631Z,0.80
2024-01-20T13:42:32.477Z,0.80
2024-01-20T13:44:59.264Z,0.70
2024-01-20T13:47:26.267Z,0.50
2024-01-20T13:49:53.165Z,0.40
2024-01-20T13:52:19.965Z,0.40
2024-01-20T13:54:46.987Z,0.50
2024-01-20T13:57:17.308Z,0.50
2024-01-20T13:59:44.070Z,0.30
2024-01-20T14:02:10.905Z,0.30
2024-01-20T14:04:37.793Z,0.30
2024-01-20T14:07:06.206Z,0.20
2024-01-20T14:09:33.478Z,0.30
2024-01-20T14:12:00.355Z,0.10
2024-01-20T14:14:27.647Z,0.10
2024-01-20T14:16:56.390Z,0.00
2024-01-20T14:19:24.063Z,-0.10
2024-01-20T14:21:50.933Z,0.00
2024-01-20T14:24:17.833Z,-0.20
2024-01-20T14:26:44.549Z,-0.30
2024-01-20T14:29:11.963Z,-0.40
2024-01-20T14:31:52.898Z,-0.40
2024-01-20T14:34:21.177Z,-0.50
2024-01-20T14:36:52.254Z,-0.60
2024-01-20T14:39:19.673Z,-0.60
2024-01-20T14:41:47.083Z,-0.60
2024-01-20T14:44:14.038Z,-0.60
2024-01-20T14:46:41.032Z,-0.70
2024-01-20T14:49:09.012Z,-0.70
2024-01-20T14:51:36.385Z,-0.80
2024-01-20T14:54:04.426Z,-0.80
2024-01-20T14:56:32.287Z,-0.90
2024-01-20T14:59:04.130Z,-1.00
2024-01-20T15:01:32.001Z,-1.10
2024-01-20T15:03:59.010Z,-1.20
2024-01-20T15:06:26.943Z,-1.30
2024-01-20T15:08:54.459Z,-1.40
2024-01-20T15:11:21.407Z,-1.50
2024-01-20T15:13:48.149Z,-1.60
2024-01-20T15:16:15.028Z,-1.70
2024-01-20T15:18:41.813Z,-1.70
2024-01-20T15:21:08.855Z,-1.80
2024-01-20T15:23:35.808Z,-1.90
2024-01-20T15:26:02.840Z,-2.00
2024-01-20T15:28:29.709Z,-2.10
2024-01-20T15:30:56.527Z,-2.20
2024-01-20T15:33:23.613Z,-2.30
2024-01-20T15:35:50.494Z,-2.40
2024-01-20T15:38:17.385Z,-2.50
2024-01-20T15:40:44.816Z,-2.60
2024-01-20T15:43:11.611Z,-2.70
2024-01-20T15:45:38.924Z,-2.80
2024-01-20T15:48:06.731Z,-2.90
2024-01-20T15:50:33.823Z,-3.00
2024-01-20T15:53:01.383Z,-3.10
2024-01-20T15:55:28.216Z,-3.20
2024-01-20T15:57:55.194Z,-3.30
2024-01-20T16:00:22.209Z,-3.40
2024-01-20T16:02:49.917Z,-3.50
2024-01-20T16:05:16.922Z,-3.50
2024-01-20T16:07:44.215Z,-3.60
2024-01-20T16:10:11.713Z,-3.60
2024-01-20T16:12:38.632Z,-3.70
2024-01-20T16:15:07.660Z,-3.70
2024-01-20T16:17:37.290Z,-3.80
2024-01-20T16:20:04.517Z,-3.90
2024-01-20T16:22:33.013Z,-4.00
2024-01-20T16:25:00.159Z,-4.10
2024-01-20T16:27:26.886Z,-4.20
2024-01-20T16:29:53.615Z,-4.20
2024-01-20T16:32:20.543Z,-4.30
2024-01-20T16:34:47.592Z,-4.40
2024-01-20T16:37:14.436Z,-4.30
2024-01-20T16:39:41.347Z,-4.40
2024-01-20T16:42:08.266Z,-4.50
2024-01-20T16:44:35.206Z,-4.60
2024-01-20T16:47:02.252Z,-4.70
2024-01-20T16:49:29.278Z,-4.80
2024-01-20T16:51:58.104Z,-4.90
2024-01-20T16:54:26.163Z,-4.90
2024-01-20T16:56:53.362Z,-5.00
2024-01-20T16:59:20.249Z,-5.10
2024-01-20T17:01:47.026Z,-5.20
2024-01-20T17:04:14.974Z,-5.30
2024-01-20T17:06:42.123Z,-5.30
2024-01-20T17:09:09.172Z,-5.40
2024-01-20T17:11:36.017Z,-5.50
2024-01-20T17:14:04.921Z,-5.60
2024-01-20T17:16:35.621Z,-5.60
2024-01-20T17:19:04.397Z,-5.70
2024-01-20T17:21:32.041Z,-5.60
2024-01-20T17:23:59.285Z,-5.80
2024-01-20T17:26:30.892Z,-5.90
2024-01-20T17:28:58.738Z,-5.90
2024-01-20T17:31:34.842Z,-6.00
2024-01-20T17:34:04.661Z,-6.10
2024-01-20T17:36:32.086Z,-6.20
2024-01-20T17:39:01.610Z,-6.20
2024-01-20T17:41:28.795Z,-6.40
2024-01-20T17:43:55.551Z,-6.30
2024-01-20T17:46:22.315Z,-6.40
2024-01-20T17:48:49.779Z,-6.30
2024-01-20T17:51:16.928Z,-6.30
2024-01-20T17:53:43.781Z,-6.20
2024-01-20T17:56:10.688Z,-6.40
2024-01-20T17:58:37.438Z,-6.50
2024-01-20T18:01:06.165Z,-6.60
2024-01-20T18:03:34.171Z,-6.70
2024-01-20T18:06:01.278Z,-6.80
2024-01-20T18:08:28.297Z,-6.80
2024-01-20T18:10:55.349Z,-6.90
2024-01-20T18:13:22.869Z,-6.90
2024-01-20T18:15:49.806Z,-7.00
2024-01-20T18:18:16.828Z,-7.10
2024-01-20T18:20:44.551Z,-7.10
2024-01-20T18:23:11.446Z,-7.20
2024-01-20T18:25:38.469Z,-7.30
2024-01-20T18:28:07.150Z,-7.30
2024-01-20T18:30:34.924Z,-7.40
2024-01-20T18:33:01.910Z,-7.50
2024-01-20T18:35:28.795Z,-7.50
2024-01-20T18:37:55.778Z,-7.40
2024-01-20T18:40:22.655Z,-7.40
2024-01-20T18:42:51.086Z,-7.40
2024-01-20T18:45:19.390Z,-7.20
2024-01-20T18:47:47.133Z,-7.30
2024-01-20T18:50:14.685Z,-7.20
2024-01-20T18:52:41.809Z,-7.30
2024-01-20T18:55:09.637Z,-7.40
2024-01-20T18:57:36.545Z,-7.60
2024-01-20T19:00:04.796Z,-7.60
2024-01-20T19:02:32.764Z,-7.60
2024-01-20T19:04:59.841Z,-7.70
2024-01-20T19:07:26.795Z,-7.70
2024-01-20T19:09:53.593Z,-7.70
2024-01-20T19:12:21.368Z,-7.70
2024-01-20T19:14:49.039Z,-7.80
2024-01-20T19:17:16.167Z,-7.90
2024-01-20T19:19:46.309Z,-8.00
2024-01-20T19:22:13.394Z,-8.10
2024-01-20T19:24:40.500Z,-8.00
2024-01-20T19:27:10.895Z,-8.10
2024-01-20T19:29:37.903Z,-8.10
2024-01-20T19:32:05.012Z,-8.20
2024-01-20T19:34:32.017Z,-8.20
2024-01-20T19:36:58.933Z,-8.30
2024-01-20T19:39:25.776Z,-8.30
2024-01-20T19:41:52.710Z,-8.40
2024-01-20T19:44:19.552Z,-8.40
2024-01-20T19:46:46.330Z,-8.40
2024-01-20T19:49:13.229Z,-8.50
2024-01-20T19:51:42.176Z,-8.60
2024-01-20T19:54:09.634Z,-8.60
2024-01-20T19:56:42.492Z,-8.70
2024-01-20T19:59:10.019Z,-8.70
2024-01-20T20:01:47.360Z,-8.80
2024-01-20T20:04:18.532Z,-8.80
2024-01-20T20:06:50.537Z,-8.80
2024-01-20T20:09:19.137Z,-8.80
2024-01-20T20:11:46.375Z,-8.90
2024-01-20T20:14:13.885Z,-8.90
2024-01-20T20:16:41.554Z,-9.00
2024-01-20T20:19:13.093Z,-8.90
2024-01-20T20:21:41.243Z,-8.90
2024-01-20T20:24:09.686Z,-9.00
2024-01-20T20:26:40.866Z,-9.00
2024-01-20T20:29:08.952Z,-9.00
2024-01-20T20:31:36.025Z,-9.10
2024-01-20T20:34:02.897Z,-9.20
2024-01-20T20:36:29.962Z,-9.20
2024-01-20T20:38:57.400Z,-9.30
2024-01-20T20:41:25.694Z,-9.30
2024-01-20T20:43:52.409Z,-9.30
2024-01-20T20:46:19.283Z,-9.30
2024-01-20T20:48:46.355Z,-9.30
2024-01-20T20:51:13.234Z,-9.30
2024-01-20T20:53:40.051Z,-9.30
2024-01-20T20:56:07.134Z,-9.40
2024-01-20T20:58:33.923Z,-9.40
2024-01-20T21:01:01.924Z,-9.40
2024-01-20T21:03:28.848Z,-9.40
2024-01-20T21:05:55.847Z,-9.50
2024-01-20T21:08:22.733Z,-9.50
2024-01-20T21:10:49.553Z,-9.50
2024-01-20T21:13:16.356Z,-9.40
2024-01-20T21:15:43.857Z,-9.50
2024-01-20T21:18:11.238Z,-9.50
2024-01-20T21:20:38.202Z,-9.40
2024-01-20T21:23:05.294Z,-9.40
2024-01-20T21:25:32.735Z,-9.50
2024-01-20T21:27:59.824Z,-9.50
2024-01-20T21:30:28.892Z,-9.60
2024-01-20T21:32:55.846Z,-9.60
2024-01-20T21:35:23.040Z,-9.60
2024-01-20T21:37:49.947Z,-9.60
2024-01-20T21:40:16.679Z,-9.50
2024-01-20T21:42:43.464Z,-9.50
2024-01-20T21:45:10.926Z,-9.50
2024-01-20T21:47:37.849Z,-9.50
2024-01-20T21:50:05.407Z,-9.60
2024-01-20T21:52:32.135Z,-9.70
2024-01-20T21:54:59.885Z,-9.60
2024-01-20T21:57:26.685Z,-9.70
2024-01-20T21:59:53.509Z,-9.80
2024-01-20T22:02:23.451Z,-9.90
2024-01-20T22:04:50.366Z,-9.90
2024-01-20T22:07:17.139Z,-9.90
2024-01-20T22:09:43.914Z,-10.00
2024-01-20T22:12:10.823Z,-10.00
2024-01-20T22:14:37.557Z,-10.00
2024-01-20T22:17:04.634Z,-10.00
2024-01-20T22:19:32.455Z,-10.00
2024-01-20T22:21:59.231Z,-10.00
2024-01-20T22:24:26.054Z,-9.90
2024-01-20T22:26:53.408Z,-9.70
2024-01-20T22:29:28.489Z,-9.90
2024-01-20T22:31:58.520Z,-10.00
2024-01-20T22:34:30.912Z,-10.10
2024-01-20T22:36:58.876Z,-10.20
2024-01-20T22:39:25.668Z,-10.30
2024-01-20T22:41:52.565Z,-10.30
2024-01-20T22:44:19.423Z,-10.10
2024-01-20T22:46:47.567Z,-10.00
2024-01-20T22:49:14.492Z,-9.90
2024-01-20T22:51:41.433Z,-9.90
2024-01-20T22:54:08.299Z,-9.80
2024-01-20T22:56:35.023Z,-9.60
2024-01-20T22:59:01.818Z,-9.70
2024-01-20T23:01:28.558Z,-9.70
2024-01-20T23:03:55.355Z,-9.80
2024-01-20T23:06:22.169Z,-9.80
2024-01-20T23:08:52.211Z,-9.80
2024-01-20T23:11:19.769Z,-9.80
2024-01-20T23:13:46.751Z,-9.70
2024-01-20T23:16:13.994Z,-9.60
2024-01-20T23:18:40.991Z,-9.40
2024-01-20T23:21:09.423Z,-9.40
2024-01-20T23:23:36.442Z,-9.30
2024-01-20T23:26:05.042Z,-9.20
2024-01-20T23:28:32.061Z,-9.10
2024-01-20T23:30:59.992Z,-9.10
2024-01-20T23:33:26.935Z,-9.00
2024-01-20T23:35:53.769Z,-8.90
2024-01-20T23:38:20.487Z,-8.90
2024-01-20T23:40:47.214Z,-8.90
2024-01-20T23:43:13.914Z,-8.90
2024-01-20T23:45:40.721Z,-9.00
2024-01-20T23:48:08.494Z,-8.90
2024-01-20T23:50:36.281Z,-8.90
2024-01-20T23:53:03.080Z,-8.80
2024-01-20T23:55:30.002Z,-8.70
2024-01-20T23:57:56.713Z,-8.70
